Data for 08/08/2016

Time Sea-Level Adjusted Pressure Absolute Pressure Temperature Relative Humidity Dew Point   
(mb) (inHg) (mb) (inHg) (C) (F) (%) (C) (F)
00:05 1017 30.03 847 25.01 12.9 55.3 64 6.3 43.3
00:10 1017 30.03 847 25.01 12.7 54.9 66 6.5 43.8
00:15 1017 30.03 847 25.01 12.4 54.3 65 6.1 42.9
00:20 1017 30.03 847 25.01 12.5 54.5 64 6 42.9
00:25 1017 30.03 847 25.01 12.4 54.4 65 6.2 43.1
00:30 1017 30.03 847 25.01 12.2 54 66 6.1 43
00:35 1017 30.03 847 25.01 12.2 53.9 65 5.8 42.5
00:40 1017 30.03 847 25.01 12.1 53.9 65 5.9 42.7
00:45 1017 30.03 847 25.01 12 53.6 66 5.9 42.7
00:50 1017 30.03 847 25.01 12 53.5 65 5.5 42
00:55 1017 30.03 847 25.01 12.2 54 64 5.7 42.2
01:00 1017 30.03 847 25.01 12.4 54.3 63 5.6 42.1
01:05 1017 30.03 847 25.01 12.3 54.1 65 5.9 42.6
01:10 1017 30.03 846 24.98 12.2 53.9 65 5.9 42.6
01:15 1017 30.03 846 24.98 12.2 53.9 64 5.7 42.2
01:20 1017 30.03 846 24.98 12.4 54.2 64 5.8 42.4
01:25 1017 30.03 846 24.98 12.4 54.4 64 5.8 42.5
01:30 1017 30.03 846 24.98 12.3 54.1 64 5.8 42.4
01:35 1017 30.03 846 24.98 12.1 53.8 65 5.7 42.3
01:40 1017 30.03 846 24.98 12 53.6 65 5.6 42.1
01:45 1017 30.03 847 25.01 11.9 53.5 64 5.4 41.8
01:50 1017 30.03 847 25.01 12 53.7 63 5.4 41.6
01:55 1017 30.03 847 25.01 12.1 53.8 63 5.3 41.5
02:00 1017 30.03 847 25.01 12.1 53.8 63 5.2 41.4
02:05 1017 30.03 847 25.01 12 53.5 64 5.5 41.9
02:10 1017 30.03 846 24.98 11.6 52.9 64 5 41.1
02:15 1017 30.03 846 24.98 11.6 52.8 64 5.1 41.2
02:20 1017 30.03 846 24.98 11.5 52.6 65 5.1 41.2
02:25 1017 30.03 846 24.98 11.3 52.4 65 5 41
02:30 1017 30.03 846 24.98 11.4 52.4 66 5.2 41.4
02:35 1017 30.03 846 24.98 11.3 52.3 67 5.3 41.5
02:40 1017 30.03 846 24.98 11.2 52.2 66 5.2 41.4
02:45 1017 30.03 846 24.98 11.2 52.1 67 5.2 41.4
02:50 1017 30.03 846 24.98 11.2 52.1 66 5 41.1
02:55 1017 30.03 846 24.98 11.5 52.7 64 4.9 40.8
03:00 1017 30.03 846 24.98 11.6 52.9 62 4.7 40.5
03:05 1017 30.03 846 24.98 11.6 52.9 62 4.6 40.3
03:10 1017 30.03 846 24.98 11.8 53.2 61 4.6 40.4
03:15 1017 30.03 846 24.98 11.7 53 61 4.5 40.1
03:20 1017 30.03 846 24.98 11.7 53.1 62 4.8 40.6
03:25 1017 30.03 846 24.98 11.8 53.2 61 4.6 40.4
03:30 1017 30.03 846 24.98 11.8 53.3 61 4.7 40.4
03:35 1017 30.03 846 24.98 12 53.6 60 4.5 40
03:40 1017 30.03 846 24.98 11.9 53.4 61 4.6 40.2
03:45 1017 30.03 846 24.98 11.6 53 61 4.4 39.8
03:50 1017 30.03 846 24.98 11.3 52.4 61 4.1 39.4
03:55 1017 30.03 846 24.98 10.9 51.6 64 4.4 39.9
04:00 1017 30.03 846 24.98 10.8 51.4 63 4 39.2
04:05 1017 30.03 846 24.98 11.1 51.9 61 3.8 38.9
04:10 1017 30.03 847 25.01 11.2 52.1 63 4.4 39.9
04:15 1017 30.03 847 25.01 10.3 50.5 68 4.7 40.5
04:20 1017 30.03 847 25.01 9.9 49.9 66 4 39.1
04:25 1017 30.03 847 25.01 10.6 51 63 3.8 38.8
04:30 1017 30.03 847 25.01 11.1 51.9 60 3.6 38.5
04:35 1017 30.03 847 25.01 11.3 52.3 59 3.6 38.4
04:40 1017 30.03 847 25.01 11 51.9 60 3.6 38.5
04:45 1017 30.03 847 25.01 10.7 51.2 62 3.8 38.9
04:50 1017 30.03 847 25.01 10.2 50.4 63 3.6 38.5
04:55 1017 30.03 847 25.01 10.1 50.2 63 3.5 38.2
05:00 1018 30.06 847 25.01 10 50 65 3.7 38.7
05:05 1018 30.06 847 25.01 10 49.9 65 3.8 38.8
05:10 1018 30.06 847 25.01 10 50.1 63 3.4 38.1
05:15 1018 30.06 847 25.01 10.3 50.5 62 3.5 38.2
05:20 1018 30.06 847 25.01 10.7 51.3 60 3.3 37.9
05:25 1018 30.06 847 25.01 10.9 51.6 60 3.4 38.1
05:30 1018 30.06 847 25.01 11.1 51.9 59 3.4 38.1
05:35 1018 30.06 847 25.01 11.2 52.2 57 3.1 37.5
05:40 1018 30.06 847 25.01 11.5 52.7 55 3 37.3
05:45 1018 30.06 847 25.01 11.7 53 57 3.4 38.1
05:50 1018 30.06 847 25.01 11.6 52.9 55 3 37.4
05:55 1018 30.06 847 25.01 11.9 53.3 54 2.9 37.3
06:00 1018 30.06 847 25.01 11.5 52.7 60 3.9 39.1
06:05 1018 30.06 847 25.01 11 51.9 58 3.1 37.6
06:10 1018 30.06 847 25.01 11.3 52.3 57 3.1 37.6
06:15 1017 30.03 847 25.01 11.6 52.9 54 2.5 36.5
06:20 1017 30.03 847 25.01 12.3 54.2 51 2.7 36.8
06:25 1017 30.03 847 25.01 12.4 54.4 53 3.2 37.7
06:30 1017 30.03 847 25.01 12.5 54.4 53 3.3 38
06:35 1017 30.03 847 25.01 12.3 54.1 54 3.2 37.8
06:40 1017 30.03 847 25.01 12.4 54.4 54 3.6 38.4
06:45 1017 30.03 847 25.01 12.4 54.4 54 3.4 38.2
06:50 1017 30.03 847 25.01 12.7 54.8 55 4 39.3
06:55 1017 30.03 847 25.01 12.9 55.2 55 4 39.2
07:00 1017 30.03 846 24.98 13.1 55.5 55 4.2 39.5
07:05 1017 30.03 847 25.01 13.4 56 54 4.2 39.6
07:10 1017 30.03 847 25.01 14 57.1 50 3.7 38.7
07:15 1017 30.03 847 25.01 14.7 58.5 48 3.9 39
07:20 1017 30.03 847 25.01 15.3 59.6 47 4.1 39.3
07:25 1017 30.03 847 25.01 15.6 60.1 45 3.9 39.1
07:30 1017 30.03 847 25.01 15.7 60.2 44 3.7 38.7
07:35 1017 30.03 847 25.01 15.6 60.1 44 3.4 38
07:40 1017 30.03 847 25.01 16.2 61.2 44 4.1 39.3
07:45 1017 30.03 847 25.01 16 60.8 47 4.8 40.6
07:50 1017 30.03 847 25.01 15.8 60.5 47 4.6 40.2
07:55 1017 30.03 847 25.01 16.1 60.9 45 4.1 39.3
08:00 1017 30.03 847 25.01 16.2 61.2 45 4.4 39.9
08:05 1017 30.03 847 25.01 16.7 62 44 4.4 40
08:10 1017 30.03 847 25.01 16.7 62.1 45 4.9 40.7
08:15 1017 30.03 846 24.98 16.5 61.6 48 5.5 41.9
08:20 1017 30.03 846 24.98 16.5 61.8 47 5.4 41.7
08:25 1017 30.03 846 24.98 16.7 62.1 47 5.4 41.7
08:30 1017 30.03 846 24.98 16.5 61.7 47 5.3 41.5
08:35 1017 30.03 846 24.98 16.2 61.2 47 4.9 40.8
08:40 1017 30.03 846 24.98 16.5 61.8 47 5.3 41.6
08:45 1017 30.03 846 24.98 17.4 63.2 45 5.3 41.6
08:50 1017 30.03 846 24.98 17.3 63.1 44 5.1 41.1
08:55 1017 30.03 846 24.98 17.1 62.8 46 5.5 42
09:00 1017 30.03 846 24.98 16.8 62.3 46 5.2 41.4
09:05 1017 30.03 846 24.98 17.7 63.9 42 4.8 40.6
09:10 1017 30.03 846 24.98 18.5 65.4 40 4.8 40.6
09:15 1017 30.03 846 24.98 18.8 65.8 39 4.5 40.2
09:20 1017 30.03 846 24.98 19.2 66.5 40 5.4 41.7
09:25 1017 30.03 846 24.98 19.6 67.3 37 4.6 40.2
09:30 1017 30.03 846 24.98 19.9 67.8 39 5.7 42.2
09:35 1017 30.03 846 24.98 19.3 66.8 40 5.5 41.8
09:40 1017 30.03 846 24.98 19.3 66.8 40 5.4 41.7
09:45 1017 30.03 846 24.98 19.4 66.9 40 5.5 41.8
09:50 1017 30.03 846 24.98 19.5 67.2 41 5.9 42.7
09:55 1017 30.03 846 24.98 20.5 69 38 5.9 42.5
10:00 1017 30.03 846 24.98 20.3 68.6 40 6.5 43.7
10:05 1017 30.03 846 24.98 20.4 68.6 39 6.2 43.1
10:10 1017 30.03 846 24.98 20.3 68.5 39 6.1 42.9
10:15 1017 30.03 846 24.98 21 69.8 37 6 42.7
10:20 1017 30.03 846 24.98 21 69.7 36 5.4 41.7
10:25 1016 30 846 24.98 21.8 71.2 35 5.8 42.5
10:30 1016 30 846 24.98 22.3 72.2 34 6 42.8
10:35 1016 30 846 24.98 22.6 72.7 32 5.3 41.6
10:40 1016 30 846 24.98 22.8 73 34 6.2 43.1
10:45 1016 30 845 24.95 22.8 73 34 6.2 43.1
10:50 1016 30 845 24.95 23.2 73.7 32 5.9 42.5
10:55 1016 30 845 24.95 22.7 72.8 32 5.2 41.4
11:00 1016 30 845 24.95 23.1 73.6 31 5.4 41.7
11:05 1016 30 845 24.95 23.7 74.7 30 5.2 41.3
11:10 1016 30 845 24.95 23.7 74.6 31 5.6 42.1
11:15 1016 30 845 24.95 23.2 73.8 30 4.8 40.7
11:20 1016 30 845 24.95 24.2 75.5 31 6 42.8
11:25 1016 30 845 24.95 23.9 75.1 30 5.5 41.9
11:30 1016 30 845 24.95 24 75.1 30 5.6 42.1
11:35 1016 30 845 24.95 24.3 75.7 29 5.2 41.3
11:40 1016 30 845 24.95 24.5 76.1 30 5.8 42.5
11:45 1016 30 845 24.95 25.4 77.7 24 3.9 39
11:50 1016 30 845 24.95 24.9 76.7 26 4.5 40.1
11:55 1016 30 845 24.95 25.4 77.6 23 2.9 37.3
12:00 1016 30 845 24.95 26.5 79.6 22 3 37.4
12:05 1016 30 845 24.95 26.7 80.1 22 3.6 38.6
12:10 1015 29.97 845 24.95 26 78.8 23 3.2 37.8
12:15 1015 29.97 845 24.95 25.4 77.8 23 3.2 37.8
12:20 1015 29.97 844 24.92 26 78.8 23 3.7 38.6
12:25 1015 29.97 844 24.92 26.1 79 20 1.4 34.6
12:30 1015 29.97 844 24.92 26.4 79.5 19 1.3 34.4
12:35 1015 29.97 844 24.92 26.7 80 18 0.8 33.4
12:40 1015 29.97 844 24.92 26.4 79.5 18 0.7 33.3
12:45 1015 29.97 844 24.92 26.2 79.1 16 -1 30.1
12:50 1015 29.97 844 24.92 26.2 79.1 18 0.3 32.5
12:55 1015 29.97 844 24.92 26.9 80.4 14 -2.1 28.2
13:00 1015 29.97 844 24.92 27.1 80.7 15 -1.9 28.5
13:05 1015 29.97 844 24.92 26.9 80.5 15 -1.5 29.3
13:10 1015 29.97 844 24.92 27.3 81.2 15 -1.3 29.7
13:15 1015 29.97 844 24.92 27.6 81.6 14 -1.5 29.2
13:20 1015 29.97 844 24.92 27.9 82.2 13 -3.1 26.4
13:25 1015 29.97 844 24.92 27.4 81.2 15 -1.6 29.2
13:30 1014 29.94 844 24.92 28 82.3 14 -2.1 28.3
13:35 1014 29.94 844 24.92 28.7 83.7 14 -1.4 29.5
13:40 1014 29.94 844 24.92 28 82.4 14 -1.3 29.7
13:45 1014 29.94 843 24.89 27 80.6 15 -1.3 29.7
13:50 1014 29.94 843 24.89 27.7 81.9 14 -1.6 29.2
13:55 1014 29.94 843 24.89 26.8 80.2 15 -1.4 29.5
14:00 1014 29.94 843 24.89 26.9 80.4 15 -1.8 28.8
14:05 1014 29.94 843 24.89 27.2 81 15 -1.4 29.6
14:10 1014 29.94 843 24.89 27.3 81.2 14 -2.6 27.3
14:15 1014 29.94 843 24.89 26.9 80.5 15 -1.8 28.7
14:20 1014 29.94 843 24.89 26.6 80 14 -2.5 27.4
14:25 1014 29.94 843 24.89 26.6 79.9 15 -2.1 28.2
14:30 1014 29.94 843 24.89 27.1 80.8 14 -2.5 27.4
14:35 1014 29.94 843 24.89 27.3 81.2 14 -1.9 28.7
14:40 1014 29.94 843 24.89 27.2 81 15 -1.8 28.8
14:45 1014 29.94 843 24.89 27.3 81.2 14 -2.1 28.1
14:50 1014 29.94 843 24.89 27.5 81.6 13 -2.8 27
14:55 1014 29.94 843 24.89 28.6 83.5 13 -2.6 27.2
15:00 1014 29.94 843 24.89 28.4 83.2 14 -1.6 29.1
15:05 1014 29.94 843 24.89 27.8 82 14 -2.1 28.2
15:10 1014 29.94 843 24.89 28.4 83.1 13 -2.7 27.1
15:15 1013 29.91 843 24.89 28.8 83.9 12 -2.7 27.2
15:20 1013 29.91 843 24.89 28.8 83.9 13 -2.2 28.1
15:25 1013 29.91 842 24.86 29.7 85.4 12 -2.7 27.2
15:30 1013 29.91 842 24.86 29.2 84.5 13 -1.7 28.9
15:35 1013 29.91 842 24.86 28.7 83.6 12 -2.8 27
15:40 1013 29.91 842 24.86 28.1 82.6 12 -3.3 26.1
15:45 1013 29.91 842 24.86 28.7 83.6 13 -2.3 27.9
15:50 1013 29.91 842 24.86 28.7 83.6 12 -3.2 26.3
15:55 1013 29.91 842 24.86 28.8 83.8 13 -2.5 27.5
16:00 1013 29.91 842 24.86 28.7 83.7 13 -2.4 27.7
16:05 1013 29.91 842 24.86 28.3 82.9 13 -2.1 28.2
16:10 1013 29.91 842 24.86 28.3 82.9 14 -1.3 29.6
16:15 1013 29.91 842 24.86 28.2 82.7 13 -2.9 26.9
16:20 1013 29.91 842 24.86 28 82.3 13 -2.9 26.9
16:25 1013 29.91 842 24.86 28.3 82.9 13 -2.9 26.8
16:30 1013 29.91 842 24.86 28.6 83.6 13 -2.6 27.3
16:35 1013 29.91 842 24.86 28.6 83.5 13 -2.4 27.7
16:40 1013 29.91 842 24.86 28.2 82.7 13 -2.3 27.8
16:45 1013 29.91 842 24.86 28 82.4 13 -2.3 27.8
16:50 1012 29.88 842 24.86 28 82.4 13 -2.8 27
16:55 1012 29.88 842 24.86 27.8 82.1 13 -2.8 27
17:00 1012 29.88 842 24.86 28.3 83 13 -2.6 27.4
17:05 1012 29.88 842 24.86 28.2 82.8 13 -2.1 28.2
17:10 1012 29.88 842 24.86 28 82.4 14 -2.1 28.1
17:15 1012 29.88 842 24.86 27.9 82.1 14 -2.3 27.9
17:20 1013 29.91 842 24.86 27.7 81.8 14 -1.6 29.1
17:25 1013 29.91 842 24.86 27.9 82.2 14 -1.9 28.6
17:30 1013 29.91 842 24.86 27.7 81.9 14 -1.9 28.5
17:35 1013 29.91 842 24.86 27.6 81.6 15 -1.5 29.2
17:40 1013 29.91 842 24.86 27.4 81.3 14 -1.8 28.7
17:45 1013 29.91 842 24.86 27.3 81.2 14 -2.1 28.2
17:50 1013 29.91 842 24.86 27.3 81.2 17 0.5 32.8
17:55 1013 29.91 842 24.86 27.4 81.2 14 -1.9 28.6
18:00 1013 29.91 842 24.86 27.3 81.1 15 -1.2 29.9
18:05 1013 29.91 842 24.86 27.3 81.1 14 -2 28.4
18:10 1013 29.91 842 24.86 27.2 80.9 16 -0.2 31.6
18:15 1013 29.91 842 24.86 26.9 80.4 15 -1.3 29.7
18:20 1013 29.91 842 24.86 26.7 80.1 17 0.2 32.3
18:25 1013 29.91 842 24.86 26.7 80.1 16 -0.5 31
18:30 1013 29.91 842 24.86 26.8 80.2 19 1.8 35.3
18:35 1013 29.91 842 24.86 26.2 79.2 22 3 37.4
18:40 1013 29.91 842 24.86 25.2 77.4 24 3.3 38
18:45 1013 29.91 842 24.86 24.7 76.5 24 3.2 37.8
18:50 1013 29.91 842 24.86 24.5 76.1 25 3.7 38.7
18:55 1013 29.91 842 24.86 24.2 75.6 25 3.2 37.8
19:00 1013 29.91 842 24.86 24.1 75.4 25 3.1 37.5
19:05 1013 29.91 842 24.86 24 75.2 25 3.2 37.8
19:10 1013 29.91 842 24.86 23.8 74.9 25 2.9 37.3
19:15 1013 29.91 842 24.86 23.7 74.6 27 3.9 39
19:20 1013 29.91 842 24.86 23.4 74.2 26 3 37.5
19:25 1013 29.91 842 24.86 23.1 73.5 29 4.3 39.8
19:30 1013 29.91 842 24.86 21.7 71.1 32 4.3 39.8
19:35 1013 29.91 842 24.86 21.4 70.6 31 3.7 38.6
19:40 1013 29.91 842 24.86 21.5 70.6 32 4.1 39.3
19:45 1013 29.91 843 24.89 21.1 70 32 4 39.2
19:50 1014 29.94 843 24.89 20.9 69.6 33 4.1 39.4
19:55 1014 29.94 843 24.89 20.6 69.1 33 4 39.1
20:00 1014 29.94 843 24.89 20.4 68.7 33 3.6 38.5
20:05 1014 29.94 843 24.89 20.3 68.5 32 3.3 37.9
20:10 1014 29.94 843 24.89 20.2 68.3 32 3 37.5
20:15 1014 29.94 843 24.89 20.2 68.4 31 2.9 37.2
20:20 1014 29.94 843 24.89 20.3 68.5 31 3 37.3
20:25 1014 29.94 843 24.89 19.8 67.7 32 2.8 37.1
20:30 1014 29.94 843 24.89 19.8 67.6 32 2.6 36.7
20:35 1014 29.94 843 24.89 19.7 67.4 32 2.9 37.2
20:40 1014 29.94 843 24.89 19.2 66.5 34 3.3 37.9
20:45 1014 29.94 844 24.92 18.8 65.9 35 3.1 37.5
20:50 1014 29.94 844 24.92 18.9 66 35 3.1 37.5
20:55 1014 29.94 843 24.89 18.7 65.7 35 3.3 37.9
21:00 1014 29.94 843 24.89 18.4 65.1 36 3.3 38
21:05 1014 29.94 844 24.92 18.2 64.7 36 3 37.5
21:10 1014 29.94 844 24.92 18.4 65 36 3.1 37.6
21:15 1014 29.94 844 24.92 18.4 65 36 3.2 37.8
21:20 1014 29.94 844 24.92 18.5 65.2 36 3.3 37.9
21:25 1014 29.94 844 24.92 18.3 64.9 36 3.1 37.6
21:30 1014 29.94 844 24.92 18.3 65 35 2.8 37.1
21:35 1015 29.97 844 24.92 18.4 65.2 35 3 37.4
21:40 1015 29.97 844 24.92 18.5 65.3 36 3.2 37.8
21:45 1015 29.97 844 24.92 18.3 64.9 39 4.2 39.6
21:50 1015 29.97 844 24.92 17.1 62.7 43 4.6 40.2
21:55 1014 29.94 844 24.92 16.7 62.1 43 4.1 39.3
22:00 1014 29.94 844 24.92 16.6 61.8 42 3.6 38.5
22:05 1014 29.94 844 24.92 16.9 62.4 41 3.8 38.9
22:10 1014 29.94 844 24.92 17 62.6 40 3.6 38.5
22:15 1014 29.94 844 24.92 16.9 62.5 40 3.3 38
22:20 1014 29.94 844 24.92 16.9 62.4 41 3.6 38.5
22:25 1014 29.94 844 24.92 16.3 61.4 43 3.8 38.9
22:30 1014 29.94 844 24.92 16.1 61.1 43 3.6 38.5
22:35 1014 29.94 844 24.92 15.9 60.7 44 3.7 38.6
22:40 1015 29.97 844 24.92 15.7 60.3 44 3.5 38.2
22:45 1015 29.97 844 24.92 15.9 60.5 44 3.6 38.5
22:50 1015 29.97 844 24.92 15.6 60.1 45 3.8 38.8
22:55 1015 29.97 844 24.92 15.6 60.1 42 2.7 36.9
23:00 1015 29.97 844 24.92 16.1 60.9 43 3.6 38.5
23:05 1015 29.97 844 24.92 15.8 60.4 45 3.8 38.9
23:10 1015 29.97 844 24.92 15.8 60.4 44 3.6 38.4
23:15 1015 29.97 844 24.92 15.6 60.1 44 3.4 38.1
23:20 1015 29.97 844 24.92 15.6 60.1 44 3.6 38.5
23:25 1015 29.97 844 24.92 15.3 59.6 44 3.3 37.9
23:30 1015 29.97 844 24.92 15.2 59.3 47 4 39.2
23:35 1015 29.97 844 24.92 14.9 58.9 46 3.5 38.3
23:40 1015 29.97 844 24.92 14.7 58.4 46 3.1 37.7
23:45 1015 29.97 844 24.92 14.5 58.1 48 3.6 38.4
23:50 1015 29.97 844 24.92 14.1 57.5 49 3.7 38.7
23:55 1015 29.97 844 24.92 13.9 56.9 49 3.5 38.4
24:00 1015 29.97 844 24.92 13.7 56.6 50 3.6 38.5